»·PEaware :: N364RM KAVQ-KBXK

N364RM :: KAVQ-KBXK

FLIGHT INFORMATION

Flight Status: Arrived
Operator: Privately registered:
United States
More flights under this callsign
Pilot: Rick M. (29525)
Aircraft: CESSNA 172 SKYHAWK
(C172)
More flights by this aircraft type
Origin: KAVQ Marana Northwest Regl
United States
Destination: KBXK Buckeye Mun
United States
More flights between these airports :: More routes between these airports
Route: TFD
File this flight plan on PilotEdge
Remarks: #1 in the arizona abc challenge
Altitude:
(Current/Filed)
4,500ft
Speed:
(Current/Filed)
105kts
Departed: 31-Dec-20 09:11 AM
Arrived: 31-Dec-20 10:06 AM
Distance/Time
Traveled:
96nm/0:55
Distance/Time
To Go:
Arrived

Flight Plot

Page will automatically refresh every two minutes.

Flight plan parsing failed; only flown route is shown


Map Options




Map Legend


Flown Route
Filed Route
Departure Airport
Arrival Airport
Navaid (VOR, NDB)
Fix

Horizontal Profiles

Position Reports

Time Latitude Longitude Heading Altitude Ground
Speed
31-Dec-20 09:00 32.403079 -111.220980 358 2022ft 0kts
31-Dec-20 09:01 32.403079 -111.220980 358 2022ft 0kts
31-Dec-20 09:02 32.403079 -111.220980 358 2022ft 0kts
31-Dec-20 09:03 32.403428 -111.221011 341 2022ft 1kts
31-Dec-20 09:04 32.404058 -111.221047 43 2022ft 7kts
31-Dec-20 09:05 32.407176 -111.217324 47 2025ft 14kts
31-Dec-20 09:06 32.406564 -111.215239 136 2027ft 14kts
31-Dec-20 09:07 32.403557 -111.211680 109 2028ft 7kts
31-Dec-20 09:08 32.403562 -111.211437 73 2028ft 0kts
31-Dec-20 09:09 32.404374 -111.210806 321 2028ft 9kts
31-Dec-20 09:10 32.416429 -111.224132 315 2323ft 77kts
31-Dec-20 09:11 32.431022 -111.246924 304 2837ft 99kts
31-Dec-20 09:12 32.448639 -111.275184 306 3250ft 111kts
31-Dec-20 09:13 32.467667 -111.304668 307 3652ft 113kts
31-Dec-20 09:15 32.489956 -111.339038 307 4119ft 112kts
31-Dec-20 09:15 32.505758 -111.363449 307 4451ft 111kts
31-Dec-20 09:16 32.524717 -111.392751 307 4498ft 103kts
31-Dec-20 09:17 32.541917 -111.418369 309 4507ft 97kts
31-Dec-20 09:18 32.558895 -111.442895 309 4507ft 95kts
31-Dec-20 09:19 32.575667 -111.467167 309 4507ft 95kts
31-Dec-20 09:20 32.592404 -111.491430 309 4507ft 94kts
31-Dec-20 09:21 32.609085 -111.515656 309 4507ft 94kts
31-Dec-20 09:22 32.625885 -111.539754 310 4507ft 94kts
31-Dec-20 09:23 32.642865 -111.563628 310 4507ft 94kts
31-Dec-20 09:24 32.659844 -111.587539 310 4507ft 94kts
31-Dec-20 09:25 32.676868 -111.611512 311 4508ft 95kts
31-Dec-20 09:26 32.696509 -111.637975 312 4509ft 113kts
31-Dec-20 09:27 32.718099 -111.666408 311 4508ft 117kts
31-Dec-20 09:28 32.739942 -111.695217 311 4507ft 117kts
31-Dec-20 09:29 32.761794 -111.724086 311 4507ft 117kts
31-Dec-20 09:30 32.783644 -111.753000 311 4507ft 117kts
31-Dec-20 09:31 32.805727 -111.782266 311 4452ft 120kts
31-Dec-20 09:32 32.827005 -111.812393 308 4449ft 118kts
31-Dec-20 09:33 32.846697 -111.843276 306 4448ft 114kts
31-Dec-20 09:34 32.865267 -111.872867 306 4449ft 109kts
31-Dec-20 09:35 32.883499 -111.901973 306 4449ft 109kts
31-Dec-20 09:36 32.901630 -111.930967 306 4450ft 109kts
31-Dec-20 09:37 32.919689 -111.959893 306 4450ft 109kts
31-Dec-20 09:38 32.938160 -111.988542 307 4450ft 109kts
31-Dec-20 09:39 32.956610 -112.017132 307 4450ft 109kts
31-Dec-20 09:40 32.975054 -112.045701 308 4450ft 109kts
31-Dec-20 09:41 32.994342 -112.073662 309 4450ft 109kts
31-Dec-20 09:42 33.014151 -112.100889 311 4450ft 109kts
31-Dec-20 09:43 33.034227 -112.128034 311 4450ft 109kts
31-Dec-20 09:44 33.054315 -112.155242 311 4450ft 109kts
31-Dec-20 09:45 33.074264 -112.182305 311 4450ft 109kts
31-Dec-20 09:46 33.094315 -112.209555 311 4450ft 109kts
31-Dec-20 09:47 33.115643 -112.239433 295 3998ft 122kts
31-Dec-20 09:48 33.124741 -112.278559 284 3502ft 123kts
31-Dec-20 09:49 33.134700 -112.317694 290 3001ft 123kts
31-Dec-20 09:50 33.146685 -112.355933 290 2501ft 123kts
31-Dec-20 09:51 33.157766 -112.389779 294 2505ft 101kts
31-Dec-20 09:52 33.170093 -112.420131 298 2507ft 101kts
31-Dec-20 09:53 33.184452 -112.451830 298 2508ft 115kts
31-Dec-20 09:54 33.201200 -112.485272 303 2479ft 119kts
31-Dec-20 09:55 33.219550 -112.518497 304 2447ft 118kts
31-Dec-20 09:56 33.240375 -112.549065 309 2448ft 118kts
31-Dec-20 09:57 33.261227 -112.579296 309 2448ft 118kts
31-Dec-20 09:58 33.282137 -112.609659 309 2448ft 118kts
31-Dec-20 09:59 33.303003 -112.640007 309 2448ft 118kts
31-Dec-20 10:00 33.324943 -112.669263 313 2448ft 118kts
31-Dec-20 10:02 33.353190 -112.687757 338 2485ft 100kts
31-Dec-20 10:03 33.375982 -112.692732 19 2095ft 81kts
31-Dec-20 10:04 33.396481 -112.687518 6 1335ft 71kts
31-Dec-20 10:05 33.415506 -112.686479 2 996ft 56kts
31-Dec-20 10:06 33.420858 -112.685335 88 1006ft 0kts
31-Dec-20 10:07 33.420944 -112.683971 10 1006ft 5kts
31-Dec-20 10:08 33.421105 -112.683690 270 1007ft 0kts
31-Dec-20 10:09 33.421105 -112.683690 270 1007ft 0kts

Navigation Log

Ident Type
Flight plan parsing failed, navigation log unavailable